createdAt,value
2022-12-11T00:14:06.817Z,61.03
2022-12-11T00:29:14.876Z,61.08
2022-12-11T00:44:16.628Z,61.21
2022-12-11T00:59:18.458Z,60.93
2022-12-11T01:14:20.274Z,60.41
2022-12-11T01:29:22.653Z,59.66
2022-12-11T01:44:24.381Z,60.08
2022-12-11T01:59:28.794Z,59.04
2022-12-11T02:15:01.482Z,60.62
2022-12-11T02:30:16.326Z,60.41
2022-12-11T02:45:19.828Z,61.24
2022-12-11T03:00:22.050Z,61.01
2022-12-11T03:15:34.158Z,61.48
2022-12-11T03:30:37.670Z,61.08
2022-12-11T03:45:41.414Z,60.81
2022-12-11T04:00:43.636Z,61.07
2022-12-11T04:15:45.477Z,61.06
2022-12-11T04:30:50.904Z,61.49
2022-12-11T04:46:01.691Z,60.47
2022-12-11T05:01:11.300Z,60.79
2022-12-11T05:16:15.752Z,60.43
2022-12-11T05:31:20.808Z,60.39
2022-12-11T05:46:29.230Z,60.39
2022-12-11T06:01:35.948Z,59.97
2022-12-11T06:16:38.506Z,60.63
2022-12-11T06:31:40.947Z,60.51
2022-12-11T06:46:42.921Z,59.99
2022-12-11T07:01:45.566Z,59.89
2022-12-11T07:16:47.403Z,60.38
2022-12-11T07:31:49.615Z,60.08
2022-12-11T07:46:51.510Z,59.43
2022-12-11T08:01:53.381Z,59.74
2022-12-11T08:16:55.904Z,58.44
2022-12-11T08:31:58.213Z,58.58
2022-12-11T08:47:00.097Z,58.35
2022-12-11T09:02:01.886Z,56.93
2022-12-11T09:17:08.145Z,57.77
2022-12-11T09:32:10.265Z,57.14
2022-12-11T09:47:23.462Z,56.97
2022-12-11T10:02:47.265Z,56.52
2022-12-11T10:17:49.992Z,56.24
2022-12-11T10:33:11.969Z,55.27
2022-12-11T10:48:13.789Z,57.60
2022-12-11T11:03:26.864Z,55.27
2022-12-11T11:18:30.699Z,55.96
2022-12-11T11:33:35.770Z,56.08
2022-12-11T11:49:00.501Z,57.18
2022-12-11T12:04:04.071Z,57.67
2022-12-11T12:19:39.952Z,57.20
2022-12-11T12:34:57.219Z,56.48
2022-12-11T12:50:01.385Z,58.02
2022-12-11T13:05:18.564Z,57.08
2022-12-11T13:20:29.065Z,55.78
2022-12-11T13:35:33.477Z,58.40
2022-12-11T13:50:36.307Z,58.44
2022-12-11T14:05:38.273Z,58.44
2022-12-11T14:20:40.132Z,57.96
2022-12-11T14:35:44.096Z,57.74
2022-12-11T14:50:54.119Z,57.75
2022-12-11T15:05:58.596Z,57.54
2022-12-11T15:21:03.604Z,59.11
2022-12-11T15:36:22.437Z,60.07
2022-12-11T15:51:25.419Z,61.06
2022-12-11T16:06:27.260Z,60.63
2022-12-11T16:21:29.080Z,61.10
2022-12-11T16:36:31.495Z,60.83
2022-12-11T16:51:33.332Z,60.94
2022-12-11T17:06:35.293Z,62.14
2022-12-11T17:21:37.189Z,62.29
2022-12-11T17:36:39.455Z,62.13
2022-12-11T17:51:41.260Z,62.45
2022-12-11T18:06:43.120Z,62.45
2022-12-11T18:21:45.876Z,61.51
2022-12-11T18:36:48.078Z,60.32
2022-12-11T18:51:50.078Z,61.58
2022-12-11T19:06:51.874Z,61.61
2022-12-11T19:21:53.696Z,62.74
2022-12-11T19:36:56.510Z,61.45
2022-12-11T19:51:58.443Z,61.30
2022-12-11T20:07:00.244Z,60.73
2022-12-11T20:22:02.188Z,60.26
2022-12-11T20:37:04.618Z,59.93
2022-12-11T20:52:06.802Z,60.18
2022-12-11T21:07:09.960Z,61.11
2022-12-11T21:22:11.773Z,61.29
2022-12-11T21:37:13.915Z,60.51
2022-12-11T21:52:15.735Z,60.52
2022-12-11T22:07:17.543Z,59.55
2022-12-11T22:22:19.794Z,59.70
2022-12-11T22:37:21.655Z,58.81
2022-12-11T22:52:23.457Z,58.53
2022-12-11T23:07:25.382Z,59.28
2022-12-11T23:22:27.204Z,58.90
2022-12-11T23:37:29.194Z,58.89
2022-12-11T23:52:30.995Z,57.40
